Time;durP1;ratioP1;P1;durP2;ratioP2;P2;SDS_P1;SDS_P2;PMS_P1;PMS_P2;Temp;Humidity;BMP_temperature;BMP_pressure;BME280_temperature;BME280_humidity;BME280_pressure;Samples;Min_cycle;Max_cycle;Signal;HPM_P1;HPM_P2
2021/08/13 00:05:28;;;;;;;11.13;7.68;;;19.70;83.20;;;;;;4976101;28;20482;-81
2021/08/13 00:07:54;;;;;;;11.45;8.65;;;19.70;83.10;;;;;;4967232;28;20023;-80
2021/08/13 00:10:19;;;;;;;10.40;7.85;;;19.70;83.10;;;;;;4962332;28;20030;-80
2021/08/13 00:12:45;;;;;;;10.75;7.57;;;19.70;83.80;;;;;;4978019;28;20105;-80
2021/08/13 00:15:11;;;;;;;10.88;6.78;;;19.70;83.20;;;;;;4976546;28;20038;-79
2021/08/13 00:17:36;;;;;;;8.40;6.28;;;19.70;83.30;;;;;;4976167;28;20364;-80
2021/08/13 00:20:03;;;;;;;9.45;6.30;;;19.60;83.30;;;;;;4993848;28;20101;-81
2021/08/13 00:22:29;;;;;;;9.85;6.45;;;19.60;83.20;;;;;;4975904;28;20034;-80
2021/08/13 00:24:54;;;;;;;8.50;6.50;;;19.60;83.20;;;;;;4979340;28;20030;-80
2021/08/13 00:27:20;;;;;;;8.50;6.25;;;19.60;83.10;;;;;;4992814;28;20033;-79
2021/08/13 00:29:46;;;;;;;8.90;5.90;;;19.60;83.10;;;;;;4995113;28;20034;-80
2021/08/13 00:32:12;;;;;;;10.05;6.70;;;19.60;83.10;;;;;;4992924;28;20390;-80
2021/08/13 00:34:38;;;;;;;9.98;6.47;;;19.60;83.10;;;;;;4996759;28;20049;-80
2021/08/13 00:37:05;;;;;;;10.68;6.10;;;19.60;83.20;;;;;;4990452;28;20029;-81
2021/08/13 00:39:30;;;;;;;11.85;6.97;;;19.50;83.30;;;;;;4980233;28;20109;-80
2021/08/13 00:41:56;;;;;;;9.40;6.88;;;19.50;83.50;;;;;;4980142;28;20061;-80
2021/08/13 00:44:22;;;;;;;9.95;8.00;;;19.50;83.60;;;;;;4981118;28;20093;-81
2021/08/13 00:46:47;;;;;;;10.98;8.27;;;19.40;83.70;;;;;;4990167;28;20453;-81
2021/08/13 00:49:13;;;;;;;11.75;7.63;;;19.40;83.80;;;;;;4983067;28;20113;-79
2021/08/13 00:51:39;;;;;;;13.18;8.48;;;19.40;84.00;;;;;;4989386;28;20026;-80
2021/08/13 00:54:04;;;;;;;10.80;7.07;;;19.30;84.00;;;;;;4981103;28;20121;-81
2021/08/13 00:56:30;;;;;;;10.82;7.90;;;19.30;84.10;;;;;;4979161;28;20025;-79
2021/08/13 00:58:56;;;;;;;9.65;7.00;;;19.20;84.20;;;;;;4996549;28;20034;-81
2021/08/13 01:01:21;;;;;;;9.07;6.82;;;19.30;84.40;;;;;;4979944;28;20162;-81
2021/08/13 01:03:47;;;;;;;9.10;6.30;;;19.20;84.50;;;;;;4978960;28;20038;-80
2021/08/13 01:06:14;;;;;;;10.85;7.35;;;19.20;84.50;;;;;;4980134;28;20049;-81
2021/08/13 01:08:40;;;;;;;9.40;6.63;;;19.10;84.50;;;;;;4979589;28;20034;-81
2021/08/13 01:11:48;;;;;;;9.52;6.55;;;19.10;84.60;;;;;;4980362;28;20053;-81
2021/08/13 01:14:42;;;;;;;9.55;6.28;;;19.10;84.70;;;;;;4979967;28;20064;-81
2021/08/13 01:17:09;;;;;;;9.32;6.63;;;19.10;84.90;;;;;;4980089;28;20054;-80
2021/08/13 01:20:01;;;;;;;10.73;6.75;;;19.00;84.90;;;;;;4997091;28;20081;-81
2021/08/13 01:22:56;;;;;;;10.80;6.40;;;19.00;85.00;;;;;;4991300;28;20022;-81
2021/08/13 01:25:24;;;;;;;8.77;6.20;;;19.00;85.00;;;;;;4996317;28;20023;-81
2021/08/13 01:27:54;;;;;;;11.43;6.60;;;19.00;85.10;;;;;;5003224;28;20006;-82
2021/08/13 01:30:21;;;;;;;13.20;7.75;;;19.00;85.20;;;;;;5004815;28;20158;-81
2021/08/13 01:33:08;;;;;;;9.80;6.90;;;19.10;85.40;;;;;;4980756;28;20031;-81
2021/08/13 01:35:45;;;;;;;9.50;6.18;;;19.10;85.30;;;;;;4978675;28;20023;-81
2021/08/13 01:38:26;;;;;;;12.68;6.65;;;19.10;85.40;;;;;;4978898;28;20375;-81
2021/08/13 01:40:56;;;;;;;11.57;7.15;;;19.10;85.50;;;;;;4979126;28;20118;-80
2021/08/13 01:43:24;;;;;;;10.90;7.73;;;19.10;85.50;;;;;;4978811;28;20038;-81
2021/08/13 01:45:51;;;;;;;9.32;6.43;;;19.10;85.60;;;;;;4995988;28;20265;-82
2021/08/13 01:48:18;;;;;;;8.68;5.55;;;19.20;85.70;;;;;;4979009;28;20026;-81
2021/08/13 01:50:44;;;;;;;8.30;6.53;;;19.10;85.60;;;;;;4978505;28;20451;-81
2021/08/13 01:53:11;;;;;;;10.40;6.90;;;19.20;85.70;;;;;;4978684;28;20505;-81
2021/08/13 01:55:37;;;;;;;9.90;7.43;;;19.10;85.60;;;;;;4978403;28;20026;-81
2021/08/13 01:58:03;;;;;;;9.57;6.00;;;19.10;85.70;;;;;;4978641;28;20026;-80
2021/08/13 02:00:29;;;;;;;8.90;5.60;;;19.10;85.90;;;;;;4977958;28;20023;-81
2021/08/13 02:02:56;;;;;;;8.65;5.97;;;19.00;85.80;;;;;;4996180;28;20034;-80
2021/08/13 02:05:26;;;;;;;8.73;6.15;;;19.00;85.80;;;;;;4985176;28;20034;-79
2021/08/13 02:07:54;;;;;;;9.07;6.05;;;19.00;85.80;;;;;;4986298;28;20014;-80
2021/08/13 02:10:20;;;;;;;9.82;6.55;;;19.00;85.90;;;;;;4985524;28;20372;-80
2021/08/13 02:12:46;;;;;;;9.32;6.95;;;18.90;86.00;;;;;;4978241;28;20088;-80
2021/08/13 02:15:12;;;;;;;8.90;6.32;;;18.90;86.00;;;;;;4995588;28;20105;-80
2021/08/13 02:17:41;;;;;;;11.38;7.90;;;18.90;86.10;;;;;;4977792;28;20029;-81
2021/08/13 02:20:18;;;;;;;11.70;7.32;;;18.80;86.00;;;;;;4978709;28;20038;-80
2021/08/13 02:22:44;;;;;;;13.02;7.65;;;18.80;86.10;;;;;;4977622;28;20034;-80
2021/08/13 02:25:10;;;;;;;8.90;6.55;;;18.70;86.20;;;;;;4980596;28;20026;-80
2021/08/13 02:27:36;;;;;;;11.40;7.80;;;18.80;86.40;;;;;;5015702;28;20077;-80
2021/08/13 02:30:04;;;;;;;11.40;8.38;;;18.70;86.50;;;;;;4989848;28;20098;-77
2021/08/13 02:32:29;;;;;;;12.50;7.53;;;18.70;86.70;;;;;;5001621;28;20045;-81
2021/08/13 02:34:56;;;;;;;11.77;8.30;;;18.70;86.90;;;;;;4989246;28;20046;-81
2021/08/13 02:37:33;;;;;;;10.55;7.68;;;18.70;87.00;;;;;;4979222;28;20121;-80
2021/08/13 02:40:02;;;;;;;10.55;7.90;;;18.70;87.20;;;;;;4977424;28;20026;-80
2021/08/13 02:42:52;;;;;;;13.25;9.00;;;18.60;87.20;;;;;;4977297;28;20030;-81
2021/08/13 02:45:22;;;;;;;10.45;8.65;;;18.60;87.30;;;;;;4978092;28;20037;-80
2021/08/13 02:47:50;;;;;;;13.27;8.52;;;18.60;87.30;;;;;;4980820;28;20030;-81
2021/08/13 02:50:18;;;;;;;10.45;7.20;;;18.70;87.50;;;;;;4987190;28;20498;-80
2021/08/13 02:52:51;;;;;;;11.82;8.35;;;18.70;87.70;;;;;;4998393;28;20416;-81
2021/08/13 02:55:20;;;;;;;11.60;8.18;;;18.70;87.80;;;;;;4977935;28;20026;-81
2021/08/13 02:57:57;;;;;;;10.20;7.80;;;18.70;87.90;;;;;;4976669;28;20149;-81
2021/08/13 03:00:23;;;;;;;14.48;8.15;;;18.60;87.90;;;;;;4977980;28;20037;-81
2021/08/13 03:02:51;;;;;;;10.75;8.23;;;18.70;87.90;;;;;;4977414;28;20031;-81
2021/08/13 03:05:20;;;;;;;9.27;7.68;;;18.70;88.00;;;;;;4977621;28;20042;-80
2021/08/13 03:07:46;;;;;;;11.05;8.50;;;18.70;88.00;;;;;;4995171;28;20049;-81
2021/08/13 03:10:12;;;;;;;11.63;7.82;;;18.70;88.10;;;;;;4978082;28;20447;-81
2021/08/13 03:12:39;;;;;;;12.57;8.40;;;18.70;88.20;;;;;;4978483;28;20109;-80
2021/08/13 03:15:05;;;;;;;12.23;9.38;;;18.70;88.20;;;;;;4993600;28;20477;-80
2021/08/13 03:17:31;;;;;;;11.60;8.52;;;18.70;88.20;;;;;;4999936;28;20027;-80
2021/08/13 03:19:58;;;;;;;14.02;10.27;;;18.70;88.30;;;;;;4997790;28;20022;-81
2021/08/13 03:22:24;;;;;;;14.10;10.75;;;18.70;88.40;;;;;;4999183;28;20026;-81
2021/08/13 03:24:50;;;;;;;12.60;9.55;;;18.60;88.40;;;;;;4979121;28;20025;-81
2021/08/13 03:27:18;;;;;;;15.50;10.30;;;18.60;88.50;;;;;;4982648;28;20050;-81
2021/08/13 03:29:44;;;;;;;14.30;10.63;;;18.60;88.60;;;;;;5000822;28;20088;-82
2021/08/13 03:32:10;;;;;;;13.65;9.60;;;18.50;88.60;;;;;;4996955;28;20109;-80
2021/08/13 03:34:35;;;;;;;14.27;9.52;;;18.50;88.70;;;;;;4976409;28;20109;-80
2021/08/13 03:37:02;;;;;;;12.90;9.65;;;18.50;88.80;;;;;;4976500;28;20030;-81
2021/08/13 03:39:27;;;;;;;14.40;10.50;;;18.50;88.90;;;;;;4976438;28;20118;-81
2021/08/13 03:41:55;;;;;;;13.40;10.65;;;18.50;89.00;;;;;;4993179;28;20442;-81
2021/08/13 03:44:20;;;;;;;14.57;10.63;;;18.40;89.00;;;;;;4976524;28;20031;-82
2021/08/13 03:46:46;;;;;;;13.18;9.82;;;18.40;89.20;;;;;;4976379;28;20363;-83
2021/08/13 03:49:12;;;;;;;14.02;9.23;;;18.40;89.20;;;;;;4976558;28;20026;-83
2021/08/13 03:51:38;;;;;;;14.07;10.68;;;18.40;89.30;;;;;;4976335;28;20033;-82
2021/08/13 03:54:05;;;;;;;13.32;10.52;;;18.40;89.30;;;;;;4976332;28;20070;-82
2021/08/13 03:56:31;;;;;;;14.60;10.52;;;18.40;89.30;;;;;;4976257;28;20364;-82
2021/08/13 03:58:57;;;;;;;11.57;8.88;;;18.40;89.30;;;;;;4976210;28;20025;-80
2021/08/13 04:01:23;;;;;;;13.38;9.68;;;18.40;89.30;;;;;;4976752;28;20462;-82
2021/08/13 04:03:48;;;;;;;13.40;10.82;;;18.40;89.30;;;;;;4975989;28;20073;-81
2021/08/13 04:06:14;;;;;;;11.35;8.32;;;18.40;89.20;;;;;;4985855;28;20022;-81
2021/08/13 04:08:39;;;;;;;13.63;10.05;;;18.40;89.20;;;;;;4982246;28;20026;-81
2021/08/13 04:11:05;;;;;;;13.38;8.63;;;18.40;89.30;;;;;;4994255;28;20081;-81
2021/08/13 04:13:31;;;;;;;15.13;11.27;;;18.40;89.30;;;;;;4994107;28;20387;-81
2021/08/13 04:15:56;;;;;;;14.70;11.68;;;18.40;89.30;;;;;;4994016;28;20025;-81
2021/08/13 04:18:22;;;;;;;16.20;11.60;;;18.40;89.30;;;;;;4976671;28;20023;-82
2021/08/13 04:20:48;;;;;;;15.40;11.27;;;18.40;89.20;;;;;;4976791;28;20027;-81
2021/08/13 04:23:13;;;;;;;14.68;10.48;;;18.40;89.30;;;;;;4991311;28;20033;-81
2021/08/13 04:25:39;;;;;;;15.27;11.57;;;18.40;89.40;;;;;;4991852;28;20030;-81
2021/08/13 04:28:05;;;;;;;19.27;12.55;;;18.40;89.50;;;;;;4996056;28;20014;-80
2021/08/13 04:30:30;;;;;;;14.25;10.10;;;18.40;89.50;;;;;;4988194;28;20049;-80
2021/08/13 04:32:56;;;;;;;15.13;11.63;;;18.40;89.50;;;;;;4978549;28;20018;-81
2021/08/13 04:35:22;;;;;;;13.02;10.75;;;18.40;89.60;;;;;;4985914;28;20026;-81
2021/08/13 04:37:47;;;;;;;15.95;11.18;;;18.40;90.00;;;;;;5005775;28;20449;-81
2021/08/13 04:40:13;;;;;;;17.42;13.20;;;18.40;89.50;;;;;;4976475;28;20023;-81
2021/08/13 04:42:39;;;;;;;15.60;12.02;;;18.50;89.60;;;;;;4976564;28;20056;-81
2021/08/13 04:45:07;;;;;;;18.17;12.90;;;18.50;89.70;;;;;;4999980;28;20038;-81
2021/08/13 04:47:33;;;;;;;22.77;16.95;;;18.60;89.70;;;;;;4982268;28;20475;-80
2021/08/13 04:49:58;;;;;;;17.88;13.02;;;18.60;89.50;;;;;;4982254;28;20030;-81
2021/08/13 04:52:24;;;;;;;17.23;13.15;;;18.70;89.40;;;;;;4994765;28;20494;-81
2021/08/13 04:54:49;;;;;;;21.75;15.30;;;18.80;89.30;;;;;;4993701;28;20027;-81
2021/08/13 04:57:15;;;;;;;21.88;16.10;;;18.80;89.20;;;;;;4994133;28;20027;-81
2021/08/13 04:59:41;;;;;;;26.67;20.00;;;18.90;89.00;;;;;;4994682;28;20034;-82
2021/08/13 05:02:07;;;;;;;29.77;21.42;;;18.90;89.00;;;;;;4981113;28;20015;-81
2021/08/13 05:04:33;;;;;;;27.13;19.90;;;19.00;88.80;;;;;;5011919;28;20081;-81
2021/08/13 05:06:58;;;;;;;25.45;17.40;;;19.00;88.40;;;;;;5000171;28;20038;-81
2021/08/13 05:09:24;;;;;;;24.63;14.95;;;19.10;88.30;;;;;;5014089;28;20022;-81
2021/08/13 05:11:49;;;;;;;25.45;19.13;;;19.10;88.00;;;;;;4981298;28;20478;-80
2021/08/13 05:14:15;;;;;;;27.45;18.05;;;19.20;87.90;;;;;;4996988;28;20030;-81
2021/08/13 05:16:41;;;;;;;30.67;21.17;;;19.30;87.90;;;;;;4979163;28;20166;-80
2021/08/13 05:19:06;;;;;;;31.10;20.90;;;19.30;87.70;;;;;;4979216;28;20364;-80
2021/08/13 05:21:39;;;;;;;31.70;21.40;;;19.30;87.60;;;;;;4979023;28;20029;-81
2021/08/13 05:24:05;;;;;;;28.40;20.20;;;19.40;87.20;;;;;;4978718;28;20253;-81
2021/08/13 05:26:31;;;;;;;32.47;23.85;;;19.40;86.80;;;;;;4979360;28;20038;-81
2021/08/13 05:28:57;;;;;;;28.30;19.08;;;19.50;86.70;;;;;;4997603;28;20077;-80
2021/08/13 05:31:23;;;;;;;30.05;21.42;;;19.50;86.40;;;;;;4985433;28;20450;-81
2021/08/13 05:33:48;;;;;;;24.90;17.00;;;19.50;86.50;;;;;;5000834;28;20046;-81
2021/08/13 05:36:17;;;;;;;23.65;17.15;;;19.60;86.20;;;;;;4979538;28;20161;-81
2021/08/13 05:38:43;;;;;;;29.50;20.13;;;19.60;86.00;;;;;;4978945;28;20026;-82
2021/08/13 05:41:09;;;;;;;23.15;16.55;;;19.60;85.80;;;;;;4979183;28;20026;-81
2021/08/13 05:43:35;;;;;;;25.70;17.67;;;19.70;85.40;;;;;;4987832;28;20391;-82
2021/08/13 05:46:00;;;;;;;23.60;16.70;;;19.70;85.10;;;;;;5001391;28;20030;-81
2021/08/13 05:48:26;;;;;;;26.08;18.38;;;19.70;84.80;;;;;;4979220;28;20110;-82
2021/08/13 05:50:52;;;;;;;26.40;17.67;;;19.80;84.40;;;;;;4996029;28;20099;-81
2021/08/13 05:53:18;;;;;;;24.73;16.67;;;19.80;84.00;;;;;;4995932;28;20411;-81
2021/08/13 05:55:43;;;;;;;21.00;16.02;;;19.90;84.00;;;;;;4978868;28;20407;-81
2021/08/13 05:58:09;;;;;;;19.00;13.00;;;19.90;83.70;;;;;;4996567;28;20057;-81
2021/08/13 06:00:34;;;;;;;21.65;14.57;;;20.00;83.50;;;;;;4980314;28;20081;-82
2021/08/13 06:03:05;;;;;;;23.48;15.23;;;20.10;83.10;;;;;;4979880;28;20026;-82
2021/08/13 06:05:30;;;;;;;20.27;14.23;;;20.10;82.70;;;;;;5000604;28;20105;-82
2021/08/13 06:07:57;;;;;;;20.63;15.20;;;20.10;82.50;;;;;;5000636;28;20046;-80
2021/08/13 06:10:23;;;;;;;18.88;13.32;;;20.10;82.00;;;;;;4980565;28;20499;-81
2021/08/13 06:12:49;;;;;;;16.67;11.30;;;20.20;81.90;;;;;;4996587;28;20030;-82
2021/08/13 06:15:16;;;;;;;18.00;12.60;;;20.20;81.90;;;;;;4996315;28;20368;-82
2021/08/13 06:17:42;;;;;;;15.88;11.60;;;20.20;81.70;;;;;;4980355;28;20032;-82
2021/08/13 06:20:09;;;;;;;15.20;11.18;;;20.20;81.30;;;;;;4996555;28;20038;-81
2021/08/13 06:22:35;;;;;;;17.35;11.70;;;20.20;81.30;;;;;;5005946;28;20039;-82
2021/08/13 06:25:01;;;;;;;20.55;15.30;;;20.20;81.50;;;;;;5001166;28;20034;-82
2021/08/13 06:27:26;;;;;;;21.40;15.55;;;20.20;81.90;;;;;;4985771;28;20053;-82
2021/08/13 06:29:52;;;;;;;16.33;13.63;;;20.20;82.20;;;;;;4978718;28;20034;-82
2021/08/13 06:32:19;;;;;;;17.50;12.30;;;20.10;82.20;;;;;;4978354;28;20093;-81
2021/08/13 06:34:45;;;;;;;14.73;11.05;;;20.00;82.30;;;;;;4978317;28;20479;-81
2021/08/13 06:37:11;;;;;;;16.77;13.43;;;20.10;82.10;;;;;;4985900;28;20041;-78
2021/08/13 06:39:37;;;;;;;17.15;12.27;;;20.00;82.10;;;;;;4994635;28;20063;-80
2021/08/13 06:42:04;;;;;;;15.95;11.32;;;20.00;81.90;;;;;;4987587;28;20027;-82
2021/08/13 06:44:29;;;;;;;15.68;11.07;;;19.90;82.00;;;;;;4978807;28;20041;-81
2021/08/13 06:46:55;;;;;;;18.75;11.68;;;19.90;82.00;;;;;;4978239;28;20026;-82
2021/08/13 06:49:21;;;;;;;16.73;12.10;;;20.00;82.50;;;;;;4996379;28;20026;-83
2021/08/13 06:51:46;;;;;;;16.88;11.00;;;19.90;81.60;;;;;;4981130;28;20025;-81
2021/08/13 06:54:13;;;;;;;15.10;11.52;;;19.90;81.40;;;;;;5011504;28;20050;-82
2021/08/13 06:56:39;;;;;;;14.95;10.18;;;19.90;81.30;;;;;;5001751;28;20018;-81
2021/08/13 06:59:04;;;;;;;15.18;10.07;;;19.90;81.50;;;;;;4998427;28;20477;-82
2021/08/13 07:01:30;;;;;;;14.82;9.88;;;19.80;81.50;;;;;;4982084;28;20033;-82
2021/08/13 07:03:56;;;;;;;20.33;11.38;;;19.90;81.40;;;;;;4977838;28;20510;-83
2021/08/13 07:06:21;;;;;;;14.23;10.38;;;19.90;81.30;;;;;;4977393;28;20069;-84
2021/08/13 07:08:47;;;;;;;15.00;10.00;;;19.90;81.40;;;;;;4977874;28;20022;-82
2021/08/13 07:11:12;;;;;;;13.30;10.07;;;20.00;81.40;;;;;;4979258;28;20030;-82
2021/08/13 07:13:38;;;;;;;15.30;11.07;;;20.00;81.40;;;;;;4977726;28;20039;-82
2021/08/13 07:16:07;;;;;;;13.68;9.73;;;20.10;81.60;;;;;;4978950;28;20375;-82
2021/08/13 07:18:35;;;;;;;19.40;11.70;;;20.30;81.60;;;;;;4980578;28;20023;-81
2021/08/13 07:21:01;;;;;;;18.35;12.93;;;20.50;81.10;;;;;;4982302;28;20054;-82
2021/08/13 07:23:27;;;;;;;19.52;12.05;;;20.70;80.60;;;;;;4995378;28;20038;-82
2021/08/13 07:25:52;;;;;;;14.68;10.43;;;20.80;80.40;;;;;;4981904;28;20056;-81
2021/08/13 07:28:18;;;;;;;15.80;11.43;;;20.80;80.00;;;;;;4984275;28;20483;-83
2021/08/13 07:30:43;;;;;;;16.75;10.95;;;20.70;80.00;;;;;;4977392;28;20034;-82
2021/08/13 07:33:12;;;;;;;19.70;13.35;;;20.70;80.10;;;;;;4976900;28;20037;-82
2021/08/13 07:35:37;;;;;;;17.90;11.38;;;20.70;80.20;;;;;;4976545;28;20022;-82
2021/08/13 07:38:03;;;;;;;18.45;12.23;;;20.70;80.10;;;;;;4977122;28;20033;-81
2021/08/13 07:40:31;;;;;;;15.88;11.30;;;20.70;79.90;;;;;;4977739;28;20077;-81
2021/08/13 07:42:56;;;;;;;16.95;11.60;;;20.80;80.10;;;;;;4977188;28;20438;-80
2021/08/13 07:45:22;;;;;;;17.05;11.18;;;20.90;80.00;;;;;;4994881;28;20471;-83
2021/08/13 07:47:48;;;;;;;22.65;13.75;;;21.00;79.50;;;;;;4976311;28;20022;-82
2021/08/13 07:50:15;;;;;;;18.38;11.80;;;21.00;79.00;;;;;;4976255;28;20027;-81
2021/08/13 07:52:40;;;;;;;15.05;10.30;;;21.10;79.00;;;;;;4976413;28;20129;-83
2021/08/13 07:55:06;;;;;;;15.20;10.05;;;21.10;78.90;;;;;;4976402;28;20487;-81
2021/08/13 07:57:32;;;;;;;17.23;11.98;;;21.20;78.80;;;;;;4993780;28;20036;-82
2021/08/13 07:59:58;;;;;;;20.70;14.23;;;21.40;78.40;;;;;;4993869;28;20029;-82
2021/08/13 08:02:23;;;;;;;16.73;10.50;;;21.40;77.50;;;;;;4976952;28;20058;-80
2021/08/13 08:04:49;;;;;;;16.52;12.02;;;21.30;78.10;;;;;;4976418;28;20505;-81
2021/08/13 08:07:15;;;;;;;16.02;10.40;;;21.30;78.20;;;;;;4976241;28;20026;-80
2021/08/13 08:09:41;;;;;;;18.40;11.88;;;21.40;78.60;;;;;;4995232;28;20594;-81
2021/08/13 08:12:07;;;;;;;16.48;11.95;;;21.50;78.10;;;;;;5000238;28;20018;-83
2021/08/13 08:14:33;;;;;;;21.50;11.93;;;21.40;78.10;;;;;;5002233;28;20016;-80
2021/08/13 08:16:58;;;;;;;15.63;10.65;;;21.50;77.70;;;;;;4998791;28;20093;-80
2021/08/13 08:19:24;;;;;;;18.38;11.02;;;21.70;77.60;;;;;;4984634;28;20099;-81
2021/08/13 08:21:49;;;;;;;11.50;8.23;;;21.90;76.80;;;;;;4997424;28;20038;-81
2021/08/13 08:24:15;;;;;;;14.90;10.10;;;22.10;75.80;;;;;;4996714;28;20081;-81
2021/08/13 08:26:41;;;;;;;14.30;8.52;;;22.30;74.80;;;;;;4976812;28;20427;-81
2021/08/13 08:29:07;;;;;;;16.85;9.00;;;22.40;73.90;;;;;;4976343;28;20113;-80
2021/08/13 08:31:33;;;;;;;12.90;8.48;;;22.50;73.70;;;;;;4993894;28;20030;-82
2021/08/13 08:33:58;;;;;;;12.00;7.97;;;22.50;73.70;;;;;;4976128;28;20045;-81
2021/08/13 08:36:24;;;;;;;12.85;8.00;;;22.50;72.90;;;;;;4976347;28;20026;-81
2021/08/13 08:38:49;;;;;;;13.20;8.07;;;22.50;73.10;;;;;;4977422;28;20014;-81
2021/08/13 08:41:24;;;;;;;11.23;6.70;;;22.60;72.80;;;;;;4988211;28;20026;-81
2021/08/13 08:43:49;;;;;;;12.20;6.30;;;22.70;72.70;;;;;;4997462;28;20026;-81
2021/08/13 08:46:23;;;;;;;11.82;6.28;;;22.80;72.20;;;;;;5002367;28;20023;-81
2021/08/13 08:48:50;;;;;;;13.13;7.68;;;22.80;71.10;;;;;;5012255;28;20390;-82
2021/08/13 08:51:17;;;;;;;10.85;5.10;;;22.90;70.80;;;;;;4980408;28;20030;-82
2021/08/13 08:53:48;;;;;;;10.82;7.07;;;22.90;71.10;;;;;;4979712;28;20053;-81
2021/08/13 08:56:15;;;;;;;9.80;5.60;;;23.20;71.00;;;;;;4979421;28;20026;-81
2021/08/13 08:58:43;;;;;;;13.75;8.35;;;23.30;70.50;;;;;;4997391;28;20073;-82
2021/08/13 09:01:09;;;;;;;10.05;6.78;;;23.50;70.30;;;;;;4997539;28;20539;-81
2021/08/13 09:03:35;;;;;;;16.60;8.73;;;23.50;70.10;;;;;;4998039;28;20038;-81
2021/08/13 09:06:00;;;;;;;14.05;8.27;;;23.70;70.10;;;;;;4997095;28;20029;-81
2021/08/13 09:08:26;;;;;;;13.18;7.30;;;23.80;69.60;;;;;;4979722;28;20030;-79
2021/08/13 09:10:52;;;;;;;12.95;7.90;;;23.80;69.50;;;;;;4979724;28;20113;-81
2021/08/13 09:13:23;;;;;;;10.15;5.97;;;23.90;68.80;;;;;;4980279;28;20015;-81
2021/08/13 09:15:49;;;;;;;13.05;8.15;;;24.00;69.30;;;;;;4997407;28;20088;-80
2021/08/13 09:18:19;;;;;;;10.98;6.60;;;24.00;68.70;;;;;;4996823;28;20054;-81
2021/08/13 09:20:58;;;;;;;11.98;6.85;;;24.20;68.80;;;;;;4979548;28;20027;-81
2021/08/13 09:23:33;;;;;;;12.32;6.68;;;24.50;68.30;;;;;;4996986;28;20089;-82
2021/08/13 09:26:01;;;;;;;11.38;6.35;;;24.60;67.50;;;;;;4979363;28;20023;-81
2021/08/13 09:28:53;;;;;;;9.57;5.88;;;24.50;67.20;;;;;;4979365;28;20018;-80
2021/08/13 09:31:21;;;;;;;11.45;6.82;;;24.50;68.00;;;;;;4978949;28;20034;-80
2021/08/13 09:33:50;;;;;;;11.32;7.38;;;24.40;67.40;;;;;;4979220;28;20037;-80
2021/08/13 09:36:17;;;;;;;8.77;4.93;;;24.40;67.00;;;;;;4978831;28;20024;-80
2021/08/13 09:38:44;;;;;;;8.50;5.28;;;24.40;66.40;;;;;;4979596;28;20535;-81
2021/08/13 09:41:15;;;;;;;9.95;5.30;;;24.50;66.40;;;;;;4996153;28;20027;-81
2021/08/13 09:43:54;;;;;;;10.77;6.50;;;24.30;66.80;;;;;;4996423;28;20386;-81
2021/08/13 09:46:20;;;;;;;9.50;6.32;;;24.30;64.90;;;;;;4978801;28;20022;-81
2021/08/13 09:48:46;;;;;;;9.05;5.45;;;24.30;66.50;;;;;;4996576;28;20023;-81
2021/08/13 09:51:35;;;;;;;9.65;5.82;;;24.30;66.20;;;;;;4996360;28;20073;-82
2021/08/13 09:54:05;;;;;;;8.43;4.27;;;24.30;65.90;;;;;;4996769;28;20022;-82
2021/08/13 09:56:34;;;;;;;7.47;4.00;;;24.20;65.10;;;;;;4978842;28;20036;-80
2021/08/13 09:59:26;;;;;;;12.27;5.35;;;24.10;66.70;;;;;;4995939;28;20412;-81
2021/08/13 10:01:52;;;;;;;9.43;4.30;;;24.00;63.80;;;;;;4975177;28;20129;-79
2021/08/13 10:04:32;;;;;;;9.50;4.70;;;23.90;65.60;;;;;;4989485;28;20065;-80
2021/08/13 10:06:58;;;;;;;;;;;23.90;65.40;;;;;;5010179;28;20077;-80
2021/08/13 10:09:26;;;;;;;11.68;5.35;;;24.00;65.90;;;;;;4988340;28;19905;-80
2021/08/13 10:11:55;;;;;;;10.70;6.13;;;24.00;64.20;;;;;;5007116;28;20037;-80
2021/08/13 10:14:32;;;;;;;10.95;5.10;;;24.10;63.60;;;;;;4991364;28;20182;-81
2021/08/13 10:17:07;;;;;;;8.65;4.13;;;24.20;62.70;;;;;;5013089;28;20018;-80
2021/08/13 10:19:33;;;;;;;10.85;4.93;;;24.40;63.10;;;;;;4986743;28;20038;-80
2021/08/13 10:22:00;;;;;;;9.65;4.35;;;24.60;65.20;;;;;;4979504;28;20037;-81
2021/08/13 10:24:28;;;;;;;8.10;4.10;;;24.70;66.10;;;;;;4978568;28;20141;-81
2021/08/13 10:26:55;;;;;;;9.90;4.55;;;24.70;62.00;;;;;;4995395;28;20022;-82
2021/08/13 10:29:21;;;;;;;14.98;5.95;;;24.70;62.00;;;;;;4978309;28;20109;-81
2021/08/13 10:31:47;;;;;;;9.82;4.88;;;24.60;58.30;;;;;;4984794;28;20085;-79
2021/08/13 10:34:12;;;;;;;10.15;5.32;;;24.60;61.20;;;;;;5018381;28;20026;-80
2021/08/13 10:36:39;;;;;;;8.30;4.07;;;24.70;61.70;;;;;;5001968;28;20046;-79
2021/08/13 10:39:07;;;;;;;9.55;5.68;;;24.80;66.00;;;;;;5000854;28;20036;-80
2021/08/13 10:41:38;;;;;;;9.80;4.93;;;24.90;60.00;;;;;;4997757;28;20018;-78
2021/08/13 10:44:08;;;;;;;14.10;5.55;;;24.90;61.60;;;;;;4978934;28;20030;-80
2021/08/13 10:46:35;;;;;;;11.50;5.28;;;25.00;61.90;;;;;;4997322;28;20108;-79
2021/08/13 10:49:02;;;;;;;12.15;5.78;;;25.10;64.00;;;;;;4993383;28;20007;-80
2021/08/13 10:51:32;;;;;;;14.35;6.53;;;25.00;62.50;;;;;;4980734;28;20031;-79
2021/08/13 10:54:10;;;;;;;13.75;6.50;;;24.90;61.70;;;;;;4981172;28;20066;-81
2021/08/13 10:56:43;;;;;;;10.43;5.35;;;24.80;59.70;;;;;;4981359;28;20037;-81
2021/08/13 10:59:10;;;;;;;13.10;5.60;;;25.00;60.70;;;;;;4978398;28;20026;-81
2021/08/13 11:01:36;;;;;;;8.95;4.03;;;25.30;60.50;;;;;;4977897;28;20022;-80
2021/08/13 11:04:01;;;;;;;12.88;5.68;;;25.70;61.80;;;;;;4994298;28;20372;-78
2021/08/13 11:06:36;;;;;;;11.60;5.32;;;26.00;59.80;;;;;;4977226;28;20062;-79
2021/08/13 11:09:12;;;;;;;7.40;4.18;;;26.00;60.20;;;;;;4994805;28;20044;-78
2021/08/13 11:11:51;;;;;;;13.98;5.85;;;25.90;63.20;;;;;;4976864;28;20109;-79
2021/08/13 11:14:32;;;;;;;12.25;4.93;;;25.70;59.20;;;;;;4994736;28;20030;-78
2021/08/13 11:16:58;;;;;;;10.73;4.53;;;25.50;63.40;;;;;;4976928;28;20487;-79
2021/08/13 11:19:24;;;;;;;10.27;4.97;;;25.50;59.10;;;;;;4977149;28;20058;-78
2021/08/13 11:22:01;;;;;;;8.27;4.13;;;25.40;59.50;;;;;;4977233;28;20113;-78
2021/08/13 11:24:51;;;;;;;8.57;3.47;;;25.30;62.40;;;;;;4995230;28;20023;-79
2021/08/13 11:27:18;;;;;;;6.75;3.38;;;25.40;64.40;;;;;;4977484;28;20046;-78
2021/08/13 11:29:44;;;;;;;8.45;4.22;;;25.50;59.60;;;;;;4976680;28;20038;-78
2021/08/13 11:32:18;;;;;;;8.90;3.58;;;25.50;60.00;;;;;;4978882;28;20121;-79
2021/08/13 11:34:44;;;;;;;11.52;4.78;;;25.40;59.80;;;;;;4977403;28;20033;-79
2021/08/13 11:37:29;;;;;;;8.20;3.83;;;25.30;55.10;;;;;;4977136;28;20367;-80
2021/08/13 11:40:05;;;;;;;6.47;2.83;;;25.10;59.80;;;;;;4979881;28;20035;-78
2021/08/13 11:42:31;;;;;;;6.20;2.67;;;25.10;64.30;;;;;;4977056;28;20487;-78
2021/08/13 11:44:58;;;;;;;6.53;2.97;;;25.10;61.20;;;;;;4976954;28;20434;-78
2021/08/13 11:47:24;;;;;;;6.47;3.35;;;25.00;57.20;;;;;;4977692;28;20026;-78
2021/08/13 11:49:50;;;;;;;9.32;3.88;;;25.10;56.20;;;;;;4976331;28;20052;-79
2021/08/13 11:52:20;;;;;;;7.47;3.25;;;25.10;56.00;;;;;;4976076;28;20026;-80
2021/08/13 11:54:46;;;;;;;9.23;3.50;;;25.20;59.70;;;;;;4993367;28;20033;-79
2021/08/13 11:57:17;;;;;;;8.65;3.42;;;25.20;56.90;;;;;;4975969;28;20022;-79
2021/08/13 11:59:44;;;;;;;7.55;2.63;;;25.10;57.40;;;;;;4976031;28;20023;-79
2021/08/13 12:02:10;;;;;;;7.18;2.78;;;25.00;59.40;;;;;;4993834;28;20022;-79
2021/08/13 12:04:36;;;;;;;7.43;2.85;;;25.10;58.80;;;;;;4994831;28;20038;-79
2021/08/13 12:07:11;;;;;;;7.00;3.22;;;25.30;55.50;;;;;;4986043;28;20033;-78
2021/08/13 12:09:44;;;;;;;5.25;2.47;;;25.30;59.30;;;;;;4987687;28;20018;-78
2021/08/13 12:12:10;;;;;;;6.50;2.65;;;25.50;59.90;;;;;;5008924;28;20027;-77
2021/08/13 12:14:38;;;;;;;7.50;2.83;;;25.70;57.80;;;;;;4995628;28;20058;-79
2021/08/13 12:17:04;;;;;;;8.55;3.05;;;25.90;54.90;;;;;;4977072;28;20026;-78
2021/08/13 12:19:30;;;;;;;5.90;2.17;;;26.10;56.10;;;;;;4994831;28;20097;-78
2021/08/13 12:22:05;;;;;;;5.10;2.20;;;26.30;55.40;;;;;;4998476;28;20046;-78
2021/08/13 12:24:35;;;;;;;7.25;2.72;;;26.60;55.20;;;;;;5003940;28;20026;-78
2021/08/13 12:27:06;;;;;;;7.63;2.15;;;26.90;54.00;;;;;;5003865;28;20250;-78
2021/08/13 12:29:33;;;;;;;6.47;1.90;;;26.80;51.50;;;;;;5006885;28;20045;-78
2021/08/13 12:32:05;;;;;;;6.00;2.17;;;26.70;48.80;;;;;;4980799;28;20026;-79
2021/08/13 12:34:32;;;;;;;3.83;1.50;;;26.60;51.80;;;;;;4980260;28;20053;-79
2021/08/13 12:37:08;;;;;;;7.00;1.63;;;26.50;52.00;;;;;;4998073;28;20102;-79
2021/08/13 12:39:38;;;;;;;5.70;2.13;;;26.50;51.40;;;;;;4980302;28;20026;-78
2021/08/13 12:42:04;;;;;;;;;;;26.30;53.80;;;;;;4980442;28;20014;-78
2021/08/13 12:44:29;;;;;;;6.38;2.13;;;26.20;52.50;;;;;;4997827;28;19914;-79